Milwaukee, Wisconsin
Traffic Map
Current Weather Conditions
Milwaukee, Wisconsin
Few Clouds
Few Clouds

Feels Like: -1°
Wind Chill: -1° Ceiling: Unl
Heat Index: Visibility: 10mi
Dew Point: -4° Wind: 10mph
Humidity: 59% Direction: 340° (NNW)
Pressure: 30.28in Gusts: 21mph
Raw Report DataKMKE 191352Z 34009G18KT 10SM FEW250 03/M04 A3028 RMK AO2 SLP262 T00281044
Traffic Incident Summary
Active as of:
Severity:
Category:
InformationThere was an issue retrieving the traffic information for this location. Please try a different location or try again shortly.
Advertisements